createdAt,value
2018-08-20T00:02:28.744Z,69.60
2018-08-20T00:05:04.874Z,69.70
2018-08-20T00:07:39.080Z,69.70
2018-08-20T00:10:15.038Z,69.80
2018-08-20T00:12:48.690Z,69.80
2018-08-20T00:15:23.164Z,69.80
2018-08-20T00:17:56.704Z,69.90
2018-08-20T00:20:30.696Z,70.00
2018-08-20T00:23:04.149Z,70.00
2018-08-20T00:25:37.617Z,70.00
2018-08-20T00:28:11.343Z,70.10
2018-08-20T00:30:46.498Z,70.10
2018-08-20T00:33:21.692Z,70.10
2018-08-20T00:35:55.148Z,70.20
2018-08-20T00:38:28.295Z,70.20
2018-08-20T00:41:01.226Z,70.30
2018-08-20T00:43:34.106Z,70.40
2018-08-20T00:46:07.642Z,70.40
2018-08-20T00:48:40.509Z,70.50
2018-08-20T00:51:13.514Z,70.50
2018-08-20T00:53:46.459Z,70.60
2018-08-20T00:56:19.419Z,70.60
2018-08-20T00:58:52.976Z,71.30
2018-08-20T01:01:25.882Z,70.70
2018-08-20T01:04:00.358Z,70.70
2018-08-20T01:06:33.940Z,70.90
2018-08-20T01:09:08.615Z,71.00
2018-08-20T01:11:41.453Z,71.10
2018-08-20T01:14:15.755Z,71.00
2018-08-20T01:16:49.352Z,71.20
2018-08-20T01:19:22.316Z,71.20
2018-08-20T01:21:55.179Z,71.10
2018-08-20T01:24:28.037Z,71.20
2018-08-20T01:27:01.031Z,71.30
2018-08-20T01:29:34.075Z,71.20
2018-08-20T01:32:07.042Z,71.30
2018-08-20T01:34:40.018Z,71.30
2018-08-20T01:37:13.012Z,71.30
2018-08-20T01:39:46.098Z,71.30
2018-08-20T01:42:19.993Z,71.30
2018-08-20T01:44:52.958Z,71.40
2018-08-20T01:47:27.531Z,71.30
2018-08-20T01:50:01.936Z,71.50
2018-08-20T01:52:35.199Z,71.40
2018-08-20T01:55:08.848Z,71.40
2018-08-20T01:57:42.334Z,71.50
2018-08-20T02:00:16.234Z,71.40
2018-08-20T02:02:53.775Z,71.40
2018-08-20T02:05:27.811Z,71.40
2018-08-20T02:08:01.674Z,71.40
2018-08-20T02:10:35.371Z,71.50
2018-08-20T02:13:10.678Z,71.50
2018-08-20T02:15:44.323Z,71.50
2018-08-20T02:18:17.948Z,71.50
2018-08-20T02:20:51.571Z,71.50
2018-08-20T02:23:24.924Z,71.60
2018-08-20T02:25:59.461Z,71.70
2018-08-20T02:28:32.435Z,71.70
2018-08-20T02:31:06.751Z,71.80
2018-08-20T02:33:39.706Z,71.90
2018-08-20T02:36:13.099Z,71.90
2018-08-20T02:38:46.086Z,71.90
2018-08-20T02:41:18.979Z,72.00
2018-08-20T02:43:52.379Z,71.90
2018-08-20T02:46:56.561Z,72.00
2018-08-20T02:49:29.659Z,72.00
2018-08-20T02:52:02.893Z,72.00
2018-08-20T02:54:35.732Z,72.00
2018-08-20T02:57:08.874Z,71.90
2018-08-20T02:59:41.790Z,72.00
2018-08-20T03:02:15.006Z,71.90
2018-08-20T03:04:47.939Z,72.10
2018-08-20T03:07:21.728Z,72.10
2018-08-20T03:09:54.973Z,72.10
2018-08-20T03:12:28.028Z,72.20
2018-08-20T03:15:00.914Z,72.20
2018-08-20T03:17:33.913Z,72.30
2018-08-20T03:20:06.893Z,72.20
2018-08-20T03:22:41.519Z,72.20
2018-08-20T03:25:15.044Z,72.20
2018-08-20T03:27:47.995Z,72.20
2018-08-20T03:30:21.235Z,72.30
2018-08-20T03:32:54.088Z,72.20
2018-08-20T03:35:27.213Z,72.10
2018-08-20T03:38:00.124Z,72.10
2018-08-20T03:40:34.765Z,72.10
2018-08-20T03:43:07.647Z,72.00
2018-08-20T03:45:40.482Z,71.90
2018-08-20T03:48:13.618Z,71.90
2018-08-20T03:50:46.671Z,71.80
2018-08-20T03:53:20.671Z,71.80
2018-08-20T03:55:53.698Z,71.60
2018-08-20T03:58:26.617Z,71.70
2018-08-20T04:00:59.780Z,71.50
2018-08-20T04:03:33.707Z,71.40
2018-08-20T04:06:07.387Z,71.40
2018-08-20T04:08:40.697Z,71.30
2018-08-20T04:11:13.672Z,71.20
2018-08-20T04:13:46.703Z,71.10
2018-08-20T04:16:19.740Z,71.10
2018-08-20T04:18:58.775Z,71.00
2018-08-20T04:21:31.847Z,71.00
2018-08-20T04:24:05.359Z,70.90
2018-08-20T04:26:38.279Z,70.90
2018-08-20T04:29:11.262Z,70.90
2018-08-20T04:31:44.219Z,70.80
2018-08-20T04:34:17.111Z,70.70
2018-08-20T04:36:50.399Z,70.60
2018-08-20T04:39:23.336Z,70.50
2018-08-20T04:41:56.613Z,70.40
2018-08-20T04:44:29.516Z,70.40
2018-08-20T04:47:02.483Z,70.40
2018-08-20T04:49:36.844Z,70.50
2018-08-20T04:52:09.745Z,70.40
2018-08-20T04:54:42.572Z,70.30
2018-08-20T04:57:15.618Z,70.20
2018-08-20T04:59:48.477Z,70.20
2018-08-20T05:02:21.967Z,70.20
2018-08-20T05:04:54.920Z,70.20
2018-08-20T05:07:29.399Z,70.20
2018-08-20T05:10:02.428Z,70.20
2018-08-20T05:12:35.410Z,70.20
2018-08-20T05:15:08.419Z,70.10
2018-08-20T05:17:41.250Z,70.20
2018-08-20T05:20:15.543Z,70.20
2018-08-20T05:22:48.428Z,70.20
2018-08-20T05:25:22.487Z,70.10
2018-08-20T05:27:55.440Z,70.10
2018-08-20T05:30:28.346Z,70.20
2018-08-20T05:33:02.718Z,70.20
2018-08-20T05:35:35.677Z,70.20
2018-08-20T05:38:08.661Z,70.10
2018-08-20T05:40:42.373Z,70.20
2018-08-20T05:43:15.237Z,70.20
2018-08-20T05:45:48.361Z,70.30
2018-08-20T05:48:21.317Z,70.20
2018-08-20T05:50:55.274Z,70.10
2018-08-20T05:53:28.413Z,70.10
2018-08-20T05:56:01.398Z,70.10
2018-08-20T05:58:34.239Z,70.20
2018-08-20T06:01:07.146Z,70.20
2018-08-20T06:03:40.563Z,70.10
2018-08-20T06:06:13.441Z,70.10
2018-08-20T06:08:46.377Z,70.10
2018-08-20T06:11:19.264Z,70.10
2018-08-20T06:13:52.041Z,70.20
2018-08-20T06:16:25.253Z,70.10
2018-08-20T06:18:58.203Z,70.10
2018-08-20T06:21:32.692Z,70.00
2018-08-20T06:24:05.517Z,70.00
2018-08-20T06:26:38.462Z,69.90
2018-08-20T06:29:11.509Z,69.90
2018-08-20T06:31:44.500Z,69.80
2018-08-20T06:34:18.100Z,69.90
2018-08-20T06:36:50.992Z,69.90
2018-08-20T06:39:24.420Z,69.70
2018-08-20T06:41:57.225Z,69.70
2018-08-20T06:44:30.157Z,69.70
2018-08-20T06:47:03.536Z,70.50
2018-08-20T06:49:37.309Z,69.70
2018-08-20T06:52:10.291Z,69.60
2018-08-20T06:54:43.245Z,69.60
2018-08-20T06:57:16.138Z,69.50
2018-08-20T06:59:49.732Z,69.40
2018-08-20T07:02:22.724Z,69.40
2018-08-20T07:04:56.048Z,69.40
2018-08-20T07:07:28.812Z,69.30
2018-08-20T07:10:01.823Z,69.30
2018-08-20T07:12:35.649Z,69.20
2018-08-20T07:15:09.776Z,69.20
2018-08-20T07:17:43.222Z,69.10
2018-08-20T07:20:17.690Z,69.10
2018-08-20T07:22:50.794Z,69.10
2018-08-20T07:25:23.812Z,69.20
2018-08-20T07:27:56.694Z,69.10
2018-08-20T07:30:30.325Z,69.00
2018-08-20T07:33:03.334Z,69.00
2018-08-20T07:35:36.255Z,68.90
2018-08-20T07:38:09.193Z,68.90
2018-08-20T07:40:42.103Z,68.80
2018-08-20T07:43:15.460Z,68.90
2018-08-20T07:45:48.414Z,68.80
2018-08-20T07:48:22.035Z,68.80
2018-08-20T07:50:55.004Z,68.70
2018-08-20T07:53:27.941Z,68.70
2018-08-20T07:56:01.249Z,68.70
2018-08-20T07:58:34.111Z,68.60
2018-08-20T08:01:07.160Z,68.60
2018-08-20T08:03:40.104Z,68.60
2018-08-20T08:06:12.981Z,68.50
2018-08-20T08:08:46.039Z,68.50
2018-08-20T08:11:19.119Z,68.40
2018-08-20T08:13:52.488Z,68.30
2018-08-20T08:16:25.470Z,68.30
2018-08-20T08:19:00.001Z,68.20
2018-08-20T08:21:32.902Z,68.10
2018-08-20T08:24:06.027Z,68.10
2018-08-20T08:26:39.038Z,68.20
2018-08-20T08:29:12.094Z,67.90
2018-08-20T08:31:45.489Z,68.10
2018-08-20T08:34:19.172Z,67.90
2018-08-20T08:36:52.154Z,68.00
2018-08-20T08:39:25.061Z,68.00
2018-08-20T08:41:57.960Z,68.00
2018-08-20T08:44:31.668Z,67.90
2018-08-20T08:47:04.759Z,68.00
2018-08-20T08:49:38.639Z,68.00
2018-08-20T08:52:11.669Z,67.80
2018-08-20T08:54:44.649Z,68.00
2018-08-20T08:57:18.305Z,67.90
2018-08-20T08:59:51.273Z,67.80
2018-08-20T09:02:24.578Z,67.90
2018-08-20T09:04:57.468Z,67.80
2018-08-20T09:07:30.304Z,67.90
2018-08-20T09:10:03.186Z,67.90
2018-08-20T09:12:36.037Z,67.80
2018-08-20T09:15:12.826Z,67.90
2018-08-20T09:17:46.062Z,67.80
2018-08-20T09:20:19.731Z,67.80
2018-08-20T09:22:52.648Z,67.80
2018-08-20T09:25:25.453Z,67.80
2018-08-20T09:27:58.503Z,67.80
2018-08-20T09:30:31.600Z,67.90
2018-08-20T09:33:04.555Z,67.90
2018-08-20T09:35:37.454Z,67.90
2018-08-20T09:38:10.442Z,67.90
2018-08-20T09:40:43.540Z,67.80
2018-08-20T09:43:17.039Z,67.90
2018-08-20T09:45:50.793Z,67.80
2018-08-20T09:48:23.618Z,67.90
2018-08-20T09:50:56.493Z,67.90
2018-08-20T09:53:29.488Z,67.90
2018-08-20T09:56:02.557Z,68.00
2018-08-20T09:58:35.521Z,67.90
2018-08-20T10:01:08.516Z,68.00
2018-08-20T10:03:45.095Z,68.00
2018-08-20T10:06:18.322Z,68.00
2018-08-20T10:08:51.201Z,68.00
2018-08-20T10:11:24.785Z,67.90
2018-08-20T10:13:57.673Z,68.00
2018-08-20T10:16:30.473Z,68.00
2018-08-20T10:19:03.717Z,68.00
2018-08-20T10:21:36.675Z,68.10
2018-08-20T10:24:09.718Z,68.10
2018-08-20T10:26:42.625Z,68.10
2018-08-20T10:29:15.484Z,68.10
2018-08-20T10:31:49.269Z,68.10
2018-08-20T10:34:22.172Z,68.10
2018-08-20T10:36:55.052Z,68.20
2018-08-20T10:39:27.924Z,68.10
2018-08-20T10:42:01.218Z,68.10
2018-08-20T10:44:37.606Z,68.20
2018-08-20T10:47:10.691Z,68.10
2018-08-20T10:49:43.541Z,68.10
2018-08-20T10:52:16.421Z,68.10
2018-08-20T10:54:50.633Z,68.10
2018-08-20T10:57:24.518Z,68.30
2018-08-20T10:59:57.519Z,68.20
2018-08-20T11:02:30.498Z,68.20
2018-08-20T11:05:03.503Z,68.30
2018-08-20T11:07:36.324Z,68.30
2018-08-20T11:10:09.295Z,68.20
2018-08-20T11:12:43.028Z,68.30
2018-08-20T11:15:16.137Z,69.10
2018-08-20T11:17:48.993Z,68.30
2018-08-20T11:20:22.008Z,68.20
2018-08-20T11:22:54.977Z,68.20
2018-08-20T11:25:31.714Z,69.00
2018-08-20T11:28:04.579Z,68.30
2018-08-20T11:30:38.316Z,68.40
2018-08-20T11:33:11.313Z,68.50
2018-08-20T11:35:44.236Z,68.30
2018-08-20T11:38:18.673Z,68.30
2018-08-20T11:40:51.732Z,68.30
2018-08-20T11:43:25.813Z,68.30
2018-08-20T11:45:58.806Z,68.40
2018-08-20T11:48:31.781Z,68.30
2018-08-20T11:51:04.621Z,68.30
2018-08-20T11:53:37.469Z,68.30
2018-08-20T11:56:10.946Z,68.30
2018-08-20T11:58:43.801Z,68.30
2018-08-20T12:01:16.793Z,68.30
2018-08-20T12:03:56.088Z,68.30
2018-08-20T12:06:29.045Z,68.30
2018-08-20T12:09:02.480Z,68.30
2018-08-20T12:11:35.369Z,68.30
2018-08-20T12:14:08.188Z,68.20
2018-08-20T12:16:41.124Z,68.20
2018-08-20T12:19:14.914Z,68.20
2018-08-20T12:21:48.593Z,68.20
2018-08-20T12:24:21.569Z,68.00
2018-08-20T12:26:55.390Z,68.00
2018-08-20T12:29:28.213Z,68.00
2018-08-20T12:32:01.121Z,67.80
2018-08-20T12:34:33.955Z,67.90
2018-08-20T12:37:06.872Z,68.00
2018-08-20T12:39:40.627Z,68.00
2018-08-20T12:50:20.245Z,68.10
2018-08-20T12:52:53.936Z,68.40
2018-08-20T12:55:26.785Z,68.30
2018-08-20T12:58:00.041Z,68.40
2018-08-20T13:00:32.910Z,68.30
2018-08-20T13:03:05.747Z,68.30
2018-08-20T13:05:39.018Z,68.40
2018-08-20T13:08:11.976Z,68.50
2018-08-20T13:10:44.972Z,69.00
2018-08-20T13:13:17.836Z,69.10
2018-08-20T13:15:50.878Z,69.30
2018-08-20T13:18:24.583Z,69.30
2018-08-20T13:20:57.417Z,69.70
2018-08-20T13:23:31.695Z,70.00
2018-08-20T13:26:04.547Z,70.00
2018-08-20T13:28:37.466Z,70.40
2018-08-20T13:31:10.543Z,70.40
2018-08-20T13:33:44.907Z,70.40
2018-08-20T13:36:17.899Z,70.30
2018-08-20T13:38:50.770Z,70.30
2018-08-20T13:41:23.692Z,70.30
2018-08-20T13:43:56.472Z,70.30
2018-08-20T13:46:29.423Z,70.10
2018-08-20T13:49:05.126Z,70.10
2018-08-20T13:51:38.052Z,70.10
2018-08-20T13:54:11.168Z,69.90
2018-08-20T13:56:44.000Z,69.80
2018-08-20T13:59:18.036Z,69.70
2018-08-20T14:01:51.861Z,69.70
2018-08-20T14:04:24.727Z,69.90
2018-08-20T14:06:59.158Z,69.80
2018-08-20T14:09:32.025Z,69.70
2018-08-20T14:12:04.974Z,69.70
2018-08-20T14:14:37.795Z,69.60
2018-08-20T14:17:10.675Z,69.60
2018-08-20T14:19:44.130Z,69.70
2018-08-20T14:22:17.687Z,69.70
2018-08-20T14:24:50.746Z,69.70
2018-08-20T14:27:23.642Z,69.70
2018-08-20T14:29:56.553Z,69.60
2018-08-20T14:32:32.243Z,69.50
2018-08-20T14:35:06.065Z,69.40
2018-08-20T14:37:39.037Z,69.30
2018-08-20T14:40:17.869Z,69.20
2018-08-20T14:42:50.802Z,69.20
2018-08-20T14:45:24.548Z,69.10
2018-08-20T14:47:57.414Z,69.00
2018-08-20T14:50:31.799Z,69.00
2018-08-20T14:53:04.713Z,69.10
2018-08-20T14:55:37.651Z,69.00
2018-08-20T14:58:10.550Z,69.20
2018-08-20T15:00:43.326Z,69.30
2018-08-20T15:03:16.232Z,69.40
2018-08-20T15:05:49.198Z,69.50
2018-08-20T15:08:21.982Z,69.60
2018-08-20T15:10:55.018Z,69.50
2018-08-20T15:13:27.935Z,69.60
2018-08-20T15:16:00.991Z,69.60
2018-08-20T15:18:36.079Z,69.60
2018-08-20T15:21:08.928Z,69.60
2018-08-20T15:23:41.846Z,69.50
2018-08-20T15:26:14.835Z,69.50
2018-08-20T15:28:48.709Z,69.40
2018-08-20T15:31:21.682Z,69.40
2018-08-20T15:33:55.261Z,65.70
2018-08-20T15:36:28.135Z,62.90
2018-08-20T15:39:02.131Z,61.60
2018-08-20T15:41:35.127Z,59.30
2018-08-20T15:44:09.380Z,58.60
2018-08-20T15:46:42.524Z,56.20
2018-08-20T15:49:15.452Z,55.60
2018-08-20T15:51:49.143Z,54.70
2018-08-20T15:54:21.935Z,53.70
2018-08-20T15:56:54.823Z,52.90
2018-08-20T15:59:28.646Z,52.50
2018-08-20T16:02:01.628Z,52.10
2018-08-20T16:04:36.863Z,51.80
2018-08-20T16:07:09.891Z,51.30
2018-08-20T16:09:42.802Z,50.80
2018-08-20T16:12:15.773Z,50.60
2018-08-20T16:14:48.680Z,50.20
2018-08-20T16:17:21.726Z,51.80
2018-08-20T16:19:54.648Z,54.70
2018-08-20T16:22:27.563Z,56.40
2018-08-20T16:25:01.019Z,55.30
2018-08-20T16:27:33.864Z,54.00
2018-08-20T16:30:07.902Z,54.00
2018-08-20T16:32:40.706Z,56.80
2018-08-20T16:40:51.005Z,58.10
2018-08-20T16:43:24.358Z,56.30
2018-08-20T16:45:57.253Z,58.70
2018-08-20T16:48:30.121Z,60.00
2018-08-20T16:51:02.958Z,58.90
2018-08-20T16:53:35.953Z,56.90
2018-08-20T16:56:09.570Z,56.10
2018-08-20T16:58:42.929Z,58.80
2018-08-20T17:01:19.886Z,60.20
2018-08-20T17:03:52.829Z,60.20
2018-08-20T17:06:25.710Z,57.90
2018-08-20T17:08:58.755Z,56.30
2018-08-20T17:11:31.631Z,58.90
2018-08-20T17:14:05.379Z,60.70
2018-08-20T17:16:38.223Z,60.60
2018-08-20T17:19:11.110Z,58.20
2018-08-20T17:21:44.070Z,56.70
2018-08-20T17:24:25.391Z,59.20
2018-08-20T17:27:00.493Z,61.00
2018-08-20T17:29:33.470Z,61.00
2018-08-20T17:32:07.962Z,58.20
2018-08-20T17:34:44.217Z,60.50
2018-08-20T17:37:17.092Z,61.70
2018-08-20T17:40:03.873Z,61.80
2018-08-20T17:42:37.045Z,59.10
2018-08-20T17:45:11.069Z,60.70
2018-08-20T17:47:44.844Z,62.80
2018-08-20T17:50:30.806Z,63.20
2018-08-20T17:53:05.893Z,59.90
2018-08-20T17:55:38.793Z,60.70
2018-08-20T17:58:12.187Z,62.10
2018-08-20T18:00:49.253Z,63.90
2018-08-20T18:03:27.559Z,60.60
2018-08-20T18:06:04.968Z,60.40
2018-08-20T18:08:38.133Z,62.10
2018-08-20T18:11:11.137Z,63.50
2018-08-20T18:13:47.952Z,61.70
2018-08-20T18:16:22.052Z,60.20
2018-08-20T18:18:55.592Z,62.20
2018-08-20T18:21:28.490Z,63.40
2018-08-20T18:24:01.440Z,62.30
2018-08-20T18:26:41.946Z,60.60
2018-08-20T18:29:15.060Z,62.70
2018-08-20T18:31:49.365Z,63.90
2018-08-20T18:34:22.387Z,63.60
2018-08-20T18:36:55.336Z,65.30
2018-08-20T18:39:28.230Z,65.50
2018-08-20T18:42:05.963Z,65.00
2018-08-20T18:44:39.561Z,62.90
2018-08-20T18:47:14.319Z,65.40
2018-08-20T18:49:54.602Z,66.20
2018-08-20T18:52:28.883Z,64.80
2018-08-20T18:55:02.532Z,64.20
2018-08-20T18:57:36.812Z,66.20
2018-08-20T19:00:14.459Z,66.70
2018-08-20T19:02:52.260Z,64.00
2018-08-20T19:05:25.164Z,65.00
2018-08-20T19:07:57.948Z,66.50
2018-08-20T19:10:34.289Z,67.00
2018-08-20T19:13:07.243Z,63.50
2018-08-20T19:15:49.640Z,65.80
2018-08-20T19:18:27.087Z,67.30
2018-08-20T19:21:01.417Z,65.70
2018-08-20T19:23:34.303Z,64.60
2018-08-20T19:26:07.208Z,66.50
2018-08-20T19:28:40.692Z,67.50
2018-08-20T19:31:14.541Z,65.40
2018-08-20T19:33:47.777Z,65.20
2018-08-20T19:36:20.772Z,67.10
2018-08-20T19:38:53.766Z,68.20
2018-08-20T19:41:27.280Z,64.80
2018-08-20T19:44:01.058Z,66.10
2018-08-20T19:46:40.459Z,67.50
2018-08-20T19:49:16.449Z,68.40
2018-08-20T19:51:49.516Z,65.00
2018-08-20T19:54:23.331Z,67.20
2018-08-20T19:56:56.232Z,68.40
2018-08-20T19:59:33.597Z,67.20
2018-08-20T20:02:07.545Z,66.30
2018-08-20T20:04:41.520Z,68.40
2018-08-20T20:07:15.291Z,68.90
2018-08-20T20:09:48.260Z,68.20
2018-08-20T20:12:21.473Z,69.10
2018-08-20T20:14:54.309Z,68.90
2018-08-20T20:17:27.258Z,66.70
2018-08-20T20:20:00.960Z,65.80
2018-08-20T20:22:33.986Z,67.90
2018-08-20T20:25:08.221Z,69.10
2018-08-20T20:27:41.849Z,66.70
2018-08-20T20:30:14.863Z,66.50
2018-08-20T20:32:47.863Z,68.20
2018-08-20T20:35:20.823Z,69.00
2018-08-20T20:37:54.181Z,66.00
2018-08-20T20:40:27.006Z,67.50
2018-08-20T20:43:01.226Z,68.60
2018-08-20T20:45:34.152Z,69.30
2018-08-20T20:48:07.103Z,69.00
2018-08-20T20:50:39.987Z,69.50
2018-08-20T20:53:12.886Z,70.00
2018-08-20T20:55:50.281Z,66.00
2018-08-20T20:58:37.660Z,67.80
2018-08-20T21:01:11.857Z,69.00
2018-08-20T21:03:45.629Z,69.50
2018-08-20T21:06:18.508Z,66.70
2018-08-20T21:08:52.386Z,68.80
2018-08-20T21:11:25.452Z,69.60
2018-08-20T21:13:58.483Z,67.70
2018-08-20T21:16:31.417Z,69.10
2018-08-20T21:19:06.333Z,70.00
2018-08-20T21:21:39.374Z,69.80
2018-08-20T21:24:13.351Z,66.30
2018-08-20T21:26:47.176Z,68.40
2018-08-20T21:29:20.018Z,69.60
2018-08-20T21:31:53.796Z,68.80
2018-08-20T21:34:39.930Z,68.80
2018-08-20T21:37:13.284Z,69.60
2018-08-20T21:39:46.165Z,70.30
2018-08-20T21:42:19.006Z,66.40
2018-08-20T21:44:52.881Z,68.10
2018-08-20T21:47:29.671Z,69.50
2018-08-20T21:50:02.657Z,69.80
2018-08-20T21:52:38.260Z,68.80
2018-08-20T21:55:11.521Z,70.30
2018-08-20T21:57:48.028Z,70.90
2018-08-20T22:00:22.933Z,66.80
2018-08-20T22:02:59.707Z,68.70
2018-08-20T22:05:34.859Z,70.10
2018-08-20T22:08:07.750Z,70.30
2018-08-20T22:10:40.748Z,68.90
2018-08-20T22:13:13.677Z,70.30
2018-08-20T22:15:48.103Z,70.40
2018-08-20T22:18:22.136Z,68.60
2018-08-20T22:20:55.040Z,70.20
2018-08-20T22:23:39.083Z,71.30
2018-08-20T22:26:00.962Z,69.70
2018-08-20T22:28:35.301Z,68.10
2018-08-20T22:31:08.639Z,69.80
2018-08-20T22:33:41.938Z,70.80
2018-08-20T22:36:15.932Z,70.20
2018-08-20T22:38:52.915Z,71.30
2018-08-20T22:41:27.047Z,71.60
2018-08-20T22:44:01.480Z,71.40
2018-08-20T22:46:34.780Z,71.00
2018-08-20T22:49:07.943Z,70.90
2018-08-20T22:51:42.101Z,71.70
2018-08-20T22:59:24.321Z,70.90
2018-08-20T23:01:57.202Z,70.80
2018-08-20T23:04:30.102Z,70.70
2018-08-20T23:07:07.455Z,71.10
2018-08-20T23:09:40.707Z,71.10
2018-08-20T23:12:14.647Z,70.60
2018-08-20T23:14:47.626Z,70.90
2018-08-20T23:17:20.761Z,70.80
2018-08-20T23:19:53.795Z,70.90
2018-08-20T23:22:26.708Z,71.20
2018-08-20T23:25:00.288Z,71.30
2018-08-20T23:27:42.581Z,71.30
2018-08-20T23:30:16.393Z,71.50
2018-08-20T23:32:49.518Z,71.60
2018-08-20T23:35:22.597Z,71.60
2018-08-20T23:37:55.771Z,71.70
2018-08-20T23:40:29.827Z,71.70
2018-08-20T23:43:03.373Z,71.80
2018-08-20T23:45:37.713Z,72.50
2018-08-20T23:48:11.333Z,71.70
2018-08-20T23:50:44.851Z,71.70
2018-08-20T23:53:18.827Z,71.70
2018-08-20T23:55:52.365Z,71.70
2018-08-20T23:58:27.665Z,71.70
